Time;durP1;ratioP1;P1;durP2;ratioP2;P2;SDS_P1;SDS_P2;PMS_P1;PMS_P2;Temp;Humidity;BMP_temperature;BMP_pressure;BME280_temperature;BME280_humidity;BME280_pressure;Samples;Min_cycle;Max_cycle;Signal;HPM_P1;HPM_P2
2024/02/14 00:00:15;;;;;;;;;;;;;;;;;;5086871;28;20292;-76
2024/02/14 00:02:40;;;;;;;;;;;;;;;;;;5075020;28;20003;-76
2024/02/14 00:05:06;;;;;;;;;;;;;;;;;;5084746;28;20357;-76
2024/02/14 00:07:31;;;;;;;;;;;;;;;;;;5089029;28;20011;-76
2024/02/14 00:09:56;;;;;;;;;;;;;;;;;;5087007;28;20709;-76
2024/02/14 00:12:22;;;;;;;;;;;;;;;;;;5080515;28;19927;-76
2024/02/14 00:14:47;;;;;;;;;;;;;;;;;;5085905;28;20007;-76
2024/02/14 00:17:12;;;;;;;;;;;;;;;;;;5079249;28;19912;-76
2024/02/14 00:19:37;;;;;;;;;;;;;;;;;;5088402;28;19927;-76
2024/02/14 00:22:02;;;;;;;;;;;;;;;;;;5079393;28;19916;-76
2024/02/14 00:24:29;;;;;;;;;;;;;;;;;;5083800;28;20273;-77
2024/02/14 00:26:55;;;;;;;;;;;;;;;;;;5084092;28;20499;-77
2024/02/14 00:29:21;;;;;;;;;;;;;;;;;;5084743;28;19916;-77
2024/02/14 00:31:46;;;;;;;;;;;;;;;;;;5083159;28;20389;-77
2024/02/14 00:34:11;;;;;;;;;;;;;;;;;;5087937;28;20011;-74
2024/02/14 00:36:36;;;;;;;;;;;;;;;;;;5081138;28;19944;-74
2024/02/14 00:39:02;;;;;;;;;;;;;;;;;;5087862;28;19916;-74
2024/02/14 00:41:29;;;;;;;;;;;;;;;;;;5082410;28;19995;-74
2024/02/14 00:43:54;;;;;;;;;;;;;;;;;;5077911;28;19920;-74
2024/02/14 00:46:19;;;;;;;;;;;;;;;;;;5080709;28;19923;-74
2024/02/14 00:48:44;;;;;;;;;;;;;;;;;;5084277;28;19920;-74
2024/02/14 00:51:10;;;;;;;;;;;;;;;;;;5078640;28;20012;-74
2024/02/14 00:53:35;;;;;;;;;;;;;;;;;;5084608;28;20293;-74
2024/02/14 00:56:00;;;;;;;;;;;;;;;;;;5080698;28;20291;-74
2024/02/14 00:58:25;;;;;;;;;;;;;;;;;;5078935;28;19912;-74
2024/02/14 01:00:50;;;;;;;;;;;;;;;;;;5080405;28;20321;-74
2024/02/14 01:03:16;;;;;;;;;;;;;;;;;;5085860;28;20540;-74
2024/02/14 01:05:43;;;;;;;;;;;;;;;;;;5076986;28;19965;-74
2024/02/14 01:08:08;;;;;;;;;;;;;;;;;;5082021;28;19935;-74
2024/02/14 01:10:33;;;;;;;;;;;;;;;;;;5069721;28;20402;-74
2024/02/14 01:12:58;;;;;;;;;;;;;;;;;;5076437;28;19925;-74
2024/02/14 01:15:23;;;;;;;;;;;;;;;;;;5080848;28;19920;-74
2024/02/14 01:17:48;;;;;;;;;;;;;;;;;;5082126;28;20487;-74
2024/02/14 01:20:15;;;;;;;;;;;;;;;;;;5083953;28;19913;-74
2024/02/14 01:22:40;;;;;;;;;;;;;;;;;;5082399;28;19957;-74
2024/02/14 01:25:06;;;;;;;;;;;;;;;;;;5081402;28;19917;-74
2024/02/14 01:27:31;;;;;;;;;;;;;;;;;;5086914;28;19959;-74
2024/02/14 01:29:57;;;;;;;;;;;;;;;;;;5081452;28;20331;-74
2024/02/14 01:32:22;;;;;;;;;;;;;;;;;;5075566;28;19912;-74
2024/02/14 01:34:47;;;;;;;;;;;;;;;;;;5086033;28;19934;-74
2024/02/14 01:37:12;;;;;;;;;;;;;;;;;;5085576;28;19918;-74
2024/02/14 01:39:37;;;;;;;;;;;;;;;;;;5080465;28;20265;-74
2024/02/14 01:42:06;;;;;;;;;;;;;;;;;;5086060;28;20330;-74
2024/02/14 01:44:31;;;;;;;;;;;;;;;;;;5084329;28;19923;-77
2024/02/14 01:46:57;;;;;;;;;;;;;;;;;;5090498;28;19924;-77
2024/02/14 01:49:22;;;;;;;;;;;;;;;;;;5086146;28;19912;-76
2024/02/14 01:51:47;;;;;;;;;;;;;;;;;;5086938;28;19920;-75
2024/02/14 01:54:12;;;;;;;;;;;;;;;;;;5085509;28;20003;-76
2024/02/14 01:56:37;;;;;;;;;;;;;;;;;;5076611;28;19912;-76
2024/02/14 01:59:03;;;;;;;;;;;;;;;;;;5087330;28;19908;-75
2024/02/14 02:01:29;;;;;;;;;;;;;;;;;;5085088;28;19919;-75
2024/02/14 02:03:54;;;;;;;;;;;;;;;;;;5085624;28;19916;-76
2024/02/14 02:06:19;;;;;;;;;;;;;;;;;;5088219;28;19920;-75
2024/02/14 02:08:44;;;;;;;;;;;;;;;;;;5089612;28;20360;-76
2024/02/14 02:11:09;;;;;;;;;;;;;;;;;;5087689;28;20390;-76
2024/02/14 02:13:34;;;;;;;;;;;;;;;;;;5085884;28;20352;-75
2024/02/14 02:16:01;;;;;;;;;;;;;;;;;;5088579;28;19919;-75
2024/02/14 02:18:26;;;;;;;;;;;;;;;;;;5086450;28;20392;-75
2024/02/14 02:20:51;;;;;;;;;;;;;;;;;;5086051;28;19912;-76
2024/02/14 02:23:16;;;;;;;;;;;;;;;;;;5087938;28;20364;-76
2024/02/14 02:25:42;;;;;;;;;;;;;;;;;;5086576;28;20304;-75
2024/02/14 02:28:08;;;;;;;;;;;;;;;;;;5087664;28;19919;-76
2024/02/14 02:30:35;;;;;;;;;;;;;;;;;;5084890;28;19912;-75
2024/02/14 02:33:00;;;;;;;;;;;;;;;;;;5065164;28;19942;-75
2024/02/14 02:35:25;;;;;;;;;;;;;;;;;;5062052;28;19999;-75
2024/02/14 02:37:51;;;;;;;;;;;;;;;;;;5086520;28;19935;-75
2024/02/14 02:40:16;;;;;;;;;;;;;;;;;;5082958;28;19912;-75
2024/02/14 02:42:41;;;;;;;;;;;;;;;;;;5083802;28;20368;-76
2024/02/14 02:45:07;;;;;;;;;;;;;;;;;;5085072;28;20007;-76
2024/02/14 02:47:32;;;;;;;;;;;;;;;;;;5081215;28;19912;-76
2024/02/14 02:50:01;;;;;;;;;;;;;;;;;;5081357;28;19921;-75
2024/02/14 02:52:27;;;;;;;;;;;;;;;;;;5086470;28;19920;-75
2024/02/14 02:54:52;;;;;;;;;;;;;;;;;;5086064;28;19955;-75
2024/02/14 02:57:19;;;;;;;;;;;;;;;;;;5080541;28;19955;-76
2024/02/14 02:59:45;;;;;;;;;;;;;;;;;;5089015;28;19938;-75
2024/02/14 03:02:11;;;;;;;;;;;;;;;;;;5086257;28;19935;-75
2024/02/14 03:04:37;;;;;;;;;;;;;;;;;;5090103;28;19920;-76
2024/02/14 03:07:06;;;;;;;;;;;;;;;;;;5083155;28;19917;-76
2024/02/14 03:09:31;;;;;;;;;;;;;;;;;;5082316;28;19912;-76
2024/02/14 03:11:56;;;;;;;;;;;;;;;;;;5082636;28;20317;-76
2024/02/14 03:14:21;;;;;;;;;;;;;;;;;;5084064;28;19913;-75
2024/02/14 03:16:47;;;;;;;;;;;;;;;;;;5089895;28;19916;-75
2024/02/14 03:19:12;;;;;;;;;;;;;;;;;;5066778;28;19912;-75
2024/02/14 03:21:37;;;;;;;;;;;;;;;;;;5082141;28;19916;-75
2024/02/14 03:24:05;;;;;;;;;;;;;;;;;;5082039;28;19969;-75
2024/02/14 03:26:32;;;;;;;;;;;;;;;;;;5087321;28;19912;-75
2024/02/14 03:28:57;;;;;;;;;;;;;;;;;;5086869;28;19912;-74
2024/02/14 03:31:23;;;;;;;;;;;;;;;;;;5087541;28;19912;-74
2024/02/14 03:33:48;;;;;;;;;;;;;;;;;;5086230;28;19919;-74
2024/02/14 03:36:13;;;;;;;;;;;;;;;;;;5063348;28;19919;-75
2024/02/14 03:38:40;;;;;;;;;;;;;;;;;;5087554;28;20110;-74
2024/02/14 03:41:05;;;;;;;;;;;;;;;;;;5082094;28;19920;-75
2024/02/14 03:43:32;;;;;;;;;;;;;;;;;;5081446;28;19926;-75
2024/02/14 03:45:57;;;;;;;;;;;;;;;;;;5088449;28;19939;-75
2024/02/14 03:48:22;;;;;;;;;;;;;;;;;;5083584;28;19912;-75
2024/02/14 03:50:48;;;;;;;;;;;;;;;;;;5080662;28;19943;-75
2024/02/14 03:53:14;;;;;;;;;;;;;;;;;;5085356;28;19912;-75
2024/02/14 03:55:40;;;;;;;;;;;;;;;;;;5086778;28;20007;-75
2024/02/14 03:58:06;;;;;;;;;;;;;;;;;;5079094;28;20345;-76
2024/02/14 04:00:31;;;;;;;;;;;;;;;;;;5084257;28;19913;-75
2024/02/14 04:02:59;;;;;;;;;;;;;;;;;;5080338;28;19925;-75
2024/02/14 04:05:24;;;;;;;;;;;;;;;;;;5076785;28;19924;-74
2024/02/14 04:07:52;;;;;;;;;;;;;;;;;;5088226;28;19973;-74
2024/02/14 04:10:17;;;;;;;;;;;;;;;;;;5086579;28;19924;-74
2024/02/14 04:12:42;;;;;;;;;;;;;;;;;;5082192;28;19914;-74
2024/02/14 04:15:08;;;;;;;;;;;;;;;;;;5084607;28;19913;-75
2024/02/14 04:17:33;;;;;;;;;;;;;;;;;;5089435;28;19912;-75
2024/02/14 04:19:58;;;;;;;;;;;;;;;;;;5079582;28;19916;-75
2024/02/14 04:22:24;;;;;;;;;;;;;;;;;;5083445;28;19948;-75
2024/02/14 04:24:49;;;;;;;;;;;;;;;;;;5082068;28;19924;-75
2024/02/14 04:27:14;;;;;;;;;;;;;;;;;;5078334;28;19912;-75
2024/02/14 04:29:39;;;;;;;;;;;;;;;;;;5086710;28;20389;-75
2024/02/14 04:32:04;;;;;;;;;;;;;;;;;;5085491;28;19985;-75
2024/02/14 04:34:29;;;;;;;;;;;;;;;;;;5084296;28;20368;-75
2024/02/14 04:36:55;;;;;;;;;;;;;;;;;;5089168;28;19959;-76
2024/02/14 04:39:20;;;;;;;;;;;;;;;;;;5082547;28;19912;-76
2024/02/14 04:41:45;;;;;;;;;;;;;;;;;;5086698;28;19924;-76
2024/02/14 04:44:10;;;;;;;;;;;;;;;;;;5085260;28;19924;-76
2024/02/14 04:46:35;;;;;;;;;;;;;;;;;;5088616;28;19912;-76
2024/02/14 04:49:02;;;;;;;;;;;;;;;;;;5083382;28;19920;-76
2024/02/14 04:51:28;;;;;;;;;;;;;;;;;;5078842;28;19948;-76
2024/02/14 04:53:53;;;;;;;;;;;;;;;;;;5085002;28;20356;-76
2024/02/14 04:56:18;;;;;;;;;;;;;;;;;;5083246;28;20437;-76
2024/02/14 04:58:43;;;;;;;;;;;;;;;;;;5082792;28;19912;-76
2024/02/14 05:01:09;;;;;;;;;;;;;;;;;;5084028;28;19912;-76
2024/02/14 05:03:34;;;;;;;;;;;;;;;;;;5083760;28;20030;-76
2024/02/14 05:06:02;;;;;;;;;;;;;;;;;;5076220;28;20359;-76
2024/02/14 05:08:28;;;;;;;;;;;;;;;;;;5086325;28;19920;-76
2024/02/14 05:10:53;;;;;;;;;;;;;;;;;;5084602;28;19916;-76
2024/02/14 05:13:18;;;;;;;;;;;;;;;;;;5088275;28;19923;-77
2024/02/14 05:15:43;;;;;;;;;;;;;;;;;;5080903;28;19963;-77
2024/02/14 05:18:09;;;;;;;;;;;;;;;;;;5080913;28;19923;-79
2024/02/14 05:20:34;;;;;;;;;;;;;;;;;;5076813;28;20349;-76
2024/02/14 05:23:00;;;;;;;;;;;;;;;;;;5069995;28;19916;-77
2024/02/14 05:25:26;;;;;;;;;;;;;;;;;;5084833;28;19923;-74
2024/02/14 05:27:51;;;;;;;;;;;;;;;;;;5081340;28;20011;-74
2024/02/14 05:30:16;;;;;;;;;;;;;;;;;;5088769;28;20062;-74
2024/02/14 05:32:42;;;;;;;;;;;;;;;;;;5087676;28;21124;-74
2024/02/14 05:35:07;;;;;;;;;;;;;;;;;;5082942;28;19912;-74
2024/02/14 05:37:33;;;;;;;;;;;;;;;;;;5082035;28;19912;-74
2024/02/14 05:39:58;;;;;;;;;;;;;;;;;;5079129;28;19913;-74
2024/02/14 05:42:23;;;;;;;;;;;;;;;;;;5084130;28;19996;-74
2024/02/14 05:44:48;;;;;;;;;;;;;;;;;;5082011;28;20846;-73
2024/02/14 05:47:13;;;;;;;;;;;;;;;;;;5076156;28;19913;-74
2024/02/14 05:49:38;;;;;;;;;;;;;;;;;;5085988;28;19919;-74
2024/02/14 05:52:03;;;;;;;;;;;;;;;;;;5087258;28;19995;-74
2024/02/14 05:54:29;;;;;;;;;;;;;;;;;;5084908;28;19973;-74
2024/02/14 05:56:54;;;;;;;;;;;;;;;;;;5082525;28;19919;-74
2024/02/14 05:59:19;;;;;;;;;;;;;;;;;;5083746;28;20011;-74
2024/02/14 06:01:44;;;;;;;;;;;;;;;;;;5084131;28;20364;-73
2024/02/14 06:04:09;;;;;;;;;;;;;;;;;;5082448;28;19916;-73
2024/02/14 06:06:34;;;;;;;;;;;;;;;;;;5085784;28;19912;-73
2024/02/14 06:08:59;;;;;;;;;;;;;;;;;;5082651;28;19912;-73
2024/02/14 06:11:24;;;;;;;;;;;;;;;;;;5074608;28;20621;-74
2024/02/14 06:13:50;;;;;;;;;;;;;;;;;;5073513;28;20333;-76
2024/02/14 06:16:15;;;;;;;;;;;;;;;;;;5081447;28;20361;-74
2024/02/14 06:18:40;;;;;;;;;;;;;;;;;;5083560;28;19965;-74
2024/02/14 06:21:05;;;;;;;;;;;;;;;;;;5081512;28;19961;-74
2024/02/14 06:23:31;;;;;;;;;;;;;;;;;;5077870;28;20707;-74
2024/02/14 06:25:56;;;;;;;;;;;;;;;;;;5085668;28;19921;-74
2024/02/14 06:28:21;;;;;;;;;;;;;;;;;;5090553;28;19912;-74
2024/02/14 06:30:46;;;;;;;;;;;;;;;;;;5081988;28;20432;-74
2024/02/14 06:33:11;;;;;;;;;;;;;;;;;;5080361;28;19920;-74
2024/02/14 06:35:36;;;;;;;;;;;;;;;;;;5082190;28;20372;-76
2024/02/14 06:38:01;;;;;;;;;;;;;;;;;;5087135;28;19990;-76
2024/02/14 06:40:29;;;;;;;;;;;;;;;;;;5088772;28;19981;-75
2024/02/14 06:42:54;;;;;;;;;;;;;;;;;;5090921;28;19924;-75
2024/02/14 06:45:19;;;;;;;;;;;;;;;;;;5088663;28;20379;-76
2024/02/14 06:47:45;;;;;;;;;;;;;;;;;;5087471;28;19912;-76
2024/02/14 06:50:10;;;;;;;;;;;;;;;;;;5080595;28;19952;-76
2024/02/14 06:52:35;;;;;;;;;;;;;;;;;;5091080;28;19999;-75
2024/02/14 06:55:00;;;;;;;;;;;;;;;;;;5089467;28;19912;-75
2024/02/14 06:57:25;;;;;;;;;;;;;;;;;;5085537;28;19920;-75
2024/02/14 06:59:50;;;;;;;;;;;;;;;;;;5088191;28;20368;-75
2024/02/14 07:02:16;;;;;;;;;;;;;;;;;;5082821;28;20348;-76
2024/02/14 07:04:41;;;;;;;;;;;;;;;;;;5086248;28;19924;-76
2024/02/14 07:07:07;;;;;;;;;;;;;;;;;;5085835;28;19959;-76
2024/02/14 07:09:35;;;;;;;;;;;;;;;;;;5063609;28;20536;-76
2024/02/14 07:12:00;;;;;;;;;;;;;;;;;;5088706;28;19916;-75
2024/02/14 07:14:25;;;;;;;;;;;;;;;;;;5090908;28;19923;-76
2024/02/14 07:16:51;;;;;;;;;;;;;;;;;;5083075;28;19913;-77
2024/02/14 07:19:16;;;;;;;;;;;;;;;;;;5085467;28;19917;-75
2024/02/14 07:21:41;;;;;;;;;;;;;;;;;;5078359;28;19919;-75
2024/02/14 07:24:06;;;;;;;;;;;;;;;;;;5084762;28;20005;-75
2024/02/14 07:26:31;;;;;;;;;;;;;;;;;;5088043;28;19962;-75
2024/02/14 07:28:56;;;;;;;;;;;;;;;;;;5086968;28;20420;-75
2024/02/14 07:31:22;;;;;;;;;;;;;;;;;;5084439;28;19958;-76
2024/02/14 07:33:48;;;;;;;;;;;;;;;;;;5077725;28;19995;-76
2024/02/14 07:36:13;;;;;;;;;;;;;;;;;;5085875;28;19965;-75
2024/02/14 07:38:38;;;;;;;;;;;;;;;;;;5084989;28;20001;-76
2024/02/14 07:41:03;;;;;;;;;;;;;;;;;;5085185;28;19920;-76
2024/02/14 07:43:28;;;;;;;;;;;;;;;;;;5085921;28;20007;-77
2024/02/14 07:45:53;;;;;;;;;;;;;;;;;;5083299;28;19912;-76
2024/02/14 07:48:19;;;;;;;;;;;;;;;;;;5067118;28;19955;-76
2024/02/14 07:50:44;;;;;;;;;;;;;;;;;;5089332;28;19916;-77
2024/02/14 07:53:09;;;;;;;;;;;;;;;;;;5085348;28;19924;-77
2024/02/14 07:55:34;;;;;;;;;;;;;;;;;;5085775;28;20296;-77
2024/02/14 07:58:00;;;;;;;;;;;;;;;;;;5077621;28;19916;-76
2024/02/14 08:00:25;;;;;;;;;;;;;;;;;;5086705;28;19968;-76
2024/02/14 08:02:50;;;;;;;;;;;;;;;;;;5084113;28;20026;-76
2024/02/14 08:05:15;;;;;;;;;;;;;;;;;;5087709;28;19923;-76
2024/02/14 08:07:41;;;;;;;;;;;;;;;;;;5085698;28;20006;-77
2024/02/14 08:10:06;;;;;;;;;;;;;;;;;;5083801;28;19920;-77
2024/02/14 08:12:31;;;;;;;;;;;;;;;;;;5066624;28;19978;-77
2024/02/14 08:14:56;;;;;;;;;;;;;;;;;;5083230;28;19916;-77
2024/02/14 08:17:21;;;;;;;;;;;;;;;;;;5088303;28;20291;-76
2024/02/14 08:19:46;;;;;;;;;;;;;;;;;;5090195;28;19998;-77
2024/02/14 08:22:12;;;;;;;;;;;;;;;;;;5085611;28;19912;-77
2024/02/14 08:24:37;;;;;;;;;;;;;;;;;;5087679;28;19946;-77
2024/02/14 08:27:06;;;;;;;;;;;;;;;;;;5089099;28;19957;-77
2024/02/14 08:29:31;;;;;;;;;;;;;;;;;;5090303;28;19955;-77
2024/02/14 08:31:56;;;;;;;;;;;;;;;;;;5083499;28;19993;-76
2024/02/14 08:34:21;;;;;;;;;;;;;;;;;;5089197;28;19917;-77
2024/02/14 08:36:47;;;;;;;;;;;;;;;;;;5063618;28;19913;-77
2024/02/14 08:39:12;;;;;;;;;;;;;;;;;;5088634;28;20382;-78
2024/02/14 08:41:38;;;;;;;;;;;;;;;;;;5080991;28;19955;-76
2024/02/14 08:44:04;;;;;;;;;;;;;;;;;;5088514;28;19919;-76
2024/02/14 08:46:29;;;;;;;;;;;;;;;;;;5089692;28;19958;-78
2024/02/14 08:48:55;;;;;;;;;;;;;;;;;;5087856;28;19916;-77
2024/02/14 08:51:20;;;;;;;;;;;;;;;;;;5090129;28;19916;-76
2024/02/14 08:53:45;;;;;;;;;;;;;;;;;;5085957;28;19920;-75
2024/02/14 08:56:10;;;;;;;;;;;;;;;;;;5085247;28;19912;-75
2024/02/14 08:58:36;;;;;;;;;;;;;;;;;;5085249;28;20360;-75
2024/02/14 09:01:01;;;;;;;;;;;;;;;;;;5079627;28;20037;-75
2024/02/14 09:03:26;;;;;;;;;;;;;;;;;;5081721;28;19935;-74
2024/02/14 09:05:53;;;;;;;;;;;;;;;;;;5085358;28;20348;-75
2024/02/14 09:08:18;;;;;;;;;;;;;;;;;;5088234;28;20424;-75
2024/02/14 09:10:43;;;;;;;;;;;;;;;;;;5087063;28;19957;-75
2024/02/14 09:13:09;;;;;;;;;;;;;;;;;;5082978;28;19966;-76
2024/02/14 09:15:34;;;;;;;;;;;;;;;;;;5088315;28;20285;-75
2024/02/14 09:18:00;;;;;;;;;;;;;;;;;;5088314;28;19912;-75
2024/02/14 09:20:25;;;;;;;;;;;;;;;;;;5085245;28;19916;-74
2024/02/14 09:22:50;;;;;;;;;;;;;;;;;;5087514;28;19969;-75
2024/02/14 09:25:15;;;;;;;;;;;;;;;;;;5089521;28;19922;-75
2024/02/14 09:27:41;;;;;;;;;;;;;;;;;;5089769;28;19950;-74
2024/02/14 09:30:07;;;;;;;;;;;;;;;;;;5084613;28;20428;-75
2024/02/14 09:32:32;;;;;;;;;;;;;;;;;;5089117;28;19916;-75
2024/02/14 09:34:57;;;;;;;;;;;;;;;;;;5064230;28;20049;-74
2024/02/14 09:37:22;;;;;;;;;;;;;;;;;;5085103;28;19908;-74
2024/02/14 09:39:48;;;;;;;;;;;;;;;;;;5089267;28;19928;-75
2024/02/14 09:42:14;;;;;;;;;;;;;;;;;;5088873;28;19928;-75
2024/02/14 09:44:39;;;;;;;;;;;;;;;;;;5093233;28;19923;-75
2024/02/14 09:47:04;;;;;;;;;;;;;;;;;;5089055;28;20496;-75
2024/02/14 09:49:29;;;;;;;;;;;;;;;;;;5070811;28;19947;-75
2024/02/14 09:51:54;;;;;;;;;;;;;;;;;;5085906;28;19912;-75
2024/02/14 09:54:20;;;;;;;;;;;;;;;;;;5089382;28;19912;-74
2024/02/14 09:56:45;;;;;;;;;;;;;;;;;;5088766;28;20360;-75
2024/02/14 09:59:11;;;;;;;;;;;;;;;;;;5085309;28;19976;-74
2024/02/14 10:01:36;;;;;;;;;;;;;;;;;;5083777;28;19913;-75
2024/02/14 10:04:02;;;;;;;;;;;;;;;;;;5095928;28;19923;-79
2024/02/14 10:06:28;;;;;;;;;;;;;;;;;;5088470;28;19939;-79
2024/02/14 10:08:53;;;;;;;;;;;;;;;;;;5086639;28;19913;-80
2024/02/14 10:11:21;;;;;;;;;;;;;;;;;;5063425;28;19912;-79
2024/02/14 10:13:47;;;;;;;;;;;;;;;;;;5092449;28;20019;-80
2024/02/14 10:16:12;;;;;;;;;;;;;;;;;;5087014;28;20380;-79
2024/02/14 10:18:38;;;;;;;;;;;;;;;;;;5089996;28;19993;-80
2024/02/14 10:21:04;;;;;;;;;;;;;;;;;;5090567;28;19958;-80
2024/02/14 10:23:29;;;;;;;;;;;;;;;;;;5085131;28;19916;-80
2024/02/14 10:25:55;;;;;;;;;;;;;;;;;;5090757;28;19923;-79
2024/02/14 10:28:21;;;;;;;;;;;;;;;;;;5091475;28;20010;-77
2024/02/14 10:30:46;;;;;;;;;;;;;;;;;;5086385;28;20081;-77
2024/02/14 10:33:11;;;;;;;;;;;;;;;;;;5088153;28;19912;-77
2024/02/14 10:35:37;;;;;;;;;;;;;;;;;;5090553;28;19916;-77
2024/02/14 10:38:02;;;;;;;;;;;;;;;;;;5089526;28;19913;-78
2024/02/14 10:40:27;;;;;;;;;;;;;;;;;;5083551;28;19916;-78
2024/02/14 10:42:54;;;;;;;;;;;;;;;;;;5089741;28;19943;-77
2024/02/14 10:45:19;;;;;;;;;;;;;;;;;;5090158;28;19920;-77
2024/02/14 10:47:44;;;;;;;;;;;;;;;;;;5086485;28;20287;-79
2024/02/14 10:50:09;;;;;;;;;;;;;;;;;;5089590;28;20383;-78
2024/02/14 10:52:35;;;;;;;;;;;;;;;;;;5092322;28;20022;-79
2024/02/14 10:55:00;;;;;;;;;;;;;;;;;;5088359;28;20280;-78
2024/02/14 10:57:25;;;;;;;;;;;;;;;;;;5068687;28;19916;-79
2024/02/14 10:59:50;;;;;;;;;;;;;;;;;;5087576;28;19923;-78
2024/02/14 11:02:15;;;;;;;;;;;;;;;;;;5090714;28;20011;-79
2024/02/14 11:04:40;;;;;;;;;;;;;;;;;;5087056;28;19961;-80
2024/02/14 11:07:06;;;;;;;;;;;;;;;;;;5094842;28;20409;-77
2024/02/14 11:09:31;;;;;;;;;;;;;;;;;;5088566;28;19916;-78
2024/02/14 11:11:56;;;;;;;;;;;;;;;;;;5089746;28;20011;-80
2024/02/14 11:14:22;;;;;;;;;;;;;;;;;;5086074;28;19912;-74
2024/02/14 11:16:47;;;;;;;;;;;;;;;;;;5071428;28;19916;-75
2024/02/14 11:19:12;;;;;;;;;;;;;;;;;;5083380;28;20388;-74
2024/02/14 11:21:38;;;;;;;;;;;;;;;;;;5087311;28;20305;-74
2024/02/14 11:24:04;;;;;;;;;;;;;;;;;;5083753;28;20411;-74
2024/02/14 11:26:29;;;;;;;;;;;;;;;;;;5090008;28;19920;-74
2024/02/14 11:28:54;;;;;;;;;;;;;;;;;;5089397;28;19923;-74
2024/02/14 11:31:20;;;;;;;;;;;;;;;;;;5090188;28;19935;-74
2024/02/14 11:33:46;;;;;;;;;;;;;;;;;;5089084;28;19951;-74
2024/02/14 11:36:11;;;;;;;;;;;;;;;;;;5084715;28;19912;-74
2024/02/14 11:38:36;;;;;;;;;;;;;;;;;;5089050;28;19918;-74
2024/02/14 11:41:01;;;;;;;;;;;;;;;;;;5086508;28;20342;-74
2024/02/14 11:43:27;;;;;;;;;;;;;;;;;;5079931;28;19935;-74
2024/02/14 11:45:52;;;;;;;;;;;;;;;;;;5090996;28;20307;-74
2024/02/14 11:48:17;;;;;;;;;;;;;;;;;;5084044;28;20415;-74
2024/02/14 11:50:45;;;;;;;;;;;;;;;;;;5088561;28;19912;-74
2024/02/14 11:53:11;;;;;;;;;;;;;;;;;;5082462;28;19919;-74
2024/02/14 11:55:37;;;;;;;;;;;;;;;;;;5084668;28;19916;-74
2024/02/14 11:58:02;;;;;;;;;;;;;;;;;;5082215;28;19913;-74
2024/02/14 12:00:27;;;;;;;;;;;;;;;;;;5081132;28;19912;-74
2024/02/14 12:02:53;;;;;;;;;;;;;;;;;;5089756;28;20349;-74
2024/02/14 12:05:18;;;;;;;;;;;;;;;;;;5089005;28;20363;-74
2024/02/14 12:07:44;;;;;;;;;;;;;;;;;;5081819;28;19915;-74
2024/02/14 12:10:09;;;;;;;;;;;;;;;;;;5086926;28;19912;-74
2024/02/14 12:12:36;;;;;;;;;;;;;;;;;;5087204;28;19913;-73
2024/02/14 12:15:01;;;;;;;;;;;;;;;;;;5085086;28;20617;-74
2024/02/14 12:17:26;;;;;;;;;;;;;;;;;;5090808;28;20399;-74
2024/02/14 12:19:53;;;;;;;;;;;;;;;;;;5087988;28;19949;-74
2024/02/14 12:22:19;;;;;;;;;;;;;;;;;;5087181;28;19948;-74
2024/02/14 12:24:44;;;;;;;;;;;;;;;;;;5088497;28;19980;-76
2024/02/14 12:27:09;;;;;;;;;;;;;;;;;;5090801;28;20412;-78
2024/02/14 12:29:34;;;;;;;;;;;;;;;;;;5084465;28;19913;-79
2024/02/14 12:31:59;;;;;;;;;;;;;;;;;;5084468;28;19927;-79
2024/02/14 12:34:24;;;;;;;;;;;;;;;;;;5080734;28;20481;-79
2024/02/14 12:36:50;;;;;;;;;;;;;;;;;;5086282;28;20347;-79
2024/02/14 12:39:15;;;;;;;;;;;;;;;;;;5088801;28;19923;-79
2024/02/14 12:41:40;;;;;;;;;;;;;;;;;;5083842;28;20312;-79
2024/02/14 12:44:06;;;;;;;;;;;;;;;;;;5087629;28;19927;-79
2024/02/14 12:46:31;;;;;;;;;;;;;;;;;;5086733;28;20395;-79
2024/02/14 12:48:56;;;;;;;;;;;;;;;;;;5087757;28;20276;-77
2024/02/14 12:51:21;;;;;;;;;;;;;;;;;;5065501;28;19912;-79
2024/02/14 12:53:47;;;;;;;;;;;;;;;;;;5085948;28;20376;-79
2024/02/14 12:56:12;;;;;;;;;;;;;;;;;;5079535;28;20027;-79
2024/02/14 12:58:37;;;;;;;;;;;;;;;;;;5070455;28;20311;-80
2024/02/14 13:01:06;;;;;;;;;;;;;;;;;;5088622;28;19912;-80
2024/02/14 13:03:31;;;;;;;;;;;;;;;;;;5089023;28;19920;-81
2024/02/14 13:05:56;;;;;;;;;;;;;;;;;;5071160;28;20361;-81
2024/02/14 13:08:23;;;;;;;;;;;;;;;;;;5084890;28;19916;-81
2024/02/14 13:10:48;;;;;;;;;;;;;;;;;;5086071;28;19965;-81
2024/02/14 13:13:14;;;;;;;;;;;;;;;;;;5082637;28;19917;-79
2024/02/14 13:15:40;;;;;;;;;;;;;;;;;;5085250;28;19916;-80
2024/02/14 13:18:05;;;;;;;;;;;;;;;;;;5086003;28;20421;-82
2024/02/14 13:20:31;;;;;;;;;;;;;;;;;;5089616;28;19920;-80
2024/02/14 13:22:56;;;;;;;;;;;;;;;;;;5088036;28;19951;-82
2024/02/14 13:25:21;;;;;;;;;;;;;;;;;;5079590;28;19912;-81
2024/02/14 13:27:46;;;;;;;;;;;;;;;;;;5079633;28;20304;-81
2024/02/14 13:30:11;;;;;;;;;;;;;;;;;;5091769;28;20277;-81
2024/02/14 13:32:37;;;;;;;;;;;;;;;;;;5090101;28;20428;-81
2024/02/14 13:35:02;;;;;;;;;;;;;;;;;;5085800;28;20071;-76
2024/02/14 13:37:27;;;;;;;;;;;;;;;;;;5087276;28;19912;-75
2024/02/14 13:39:52;;;;;;;;;;;;;;;;;;5097315;28;19951;-75
2024/02/14 13:42:17;;;;;;;;;;;;;;;;;;5094272;28;19986;-76
2024/02/14 13:44:43;;;;;;;;;;;;;;;;;;5079951;28;19968;-76
2024/02/14 13:47:08;;;;;;;;;;;;;;;;;;5089603;28;20334;-75
2024/02/14 13:49:33;;;;;;;;;;;;;;;;;;5097282;28;19908;-75
2024/02/14 13:51:58;;;;;;;;;;;;;;;;;;5097258;28;19916;-75
2024/02/14 13:54:24;;;;;;;;;;;;;;;;;;5097762;28;19912;-75
2024/02/14 13:56:49;;;;;;;;;;;;;;;;;;5095575;28;19912;-76
2024/02/14 13:59:14;;;;;;;;;;;;;;;;;;5090370;28;19916;-74
2024/02/14 14:01:39;;;;;;;;;;;;;;;;;;5098694;28;19971;-75
2024/02/14 14:04:04;;;;;;;;;;;;;;;;;;5098324;28;20002;-74
2024/02/14 14:06:29;;;;;;;;;;;;;;;;;;5095959;28;19916;-76
2024/02/14 14:08:54;;;;;;;;;;;;;;;;;;5092459;28;20334;-75
2024/02/14 14:11:20;;;;;;;;;;;;;;;;;;5090146;28;19920;-75
2024/02/14 14:13:45;;;;;;;;;;;;;;;;;;5089068;28;19912;-75
2024/02/14 14:16:11;;;;;;;;;;;;;;;;;;5090897;28;19912;-76
2024/02/14 14:18:36;;;;;;;;;;;;;;;;;;5092551;28;20391;-76
2024/02/14 14:21:01;;;;;;;;;;;;;;;;;;5089064;28;19912;-76
2024/02/14 14:23:26;;;;;;;;;;;;;;;;;;5091767;28;19966;-76
2024/02/14 14:25:51;;;;;;;;;;;;;;;;;;5089517;28;19935;-75
2024/02/14 14:28:17;;;;;;;;;;;;;;;;;;5085088;28;19916;-75
2024/02/14 14:30:42;;;;;;;;;;;;;;;;;;5086205;28;19951;-76
2024/02/14 14:33:08;;;;;;;;;;;;;;;;;;5082790;28;19987;-75
2024/02/14 14:35:33;;;;;;;;;;;;;;;;;;5089486;28;19950;-76
2024/02/14 14:37:58;;;;;;;;;;;;;;;;;;5083302;28;20313;-76
2024/02/14 14:40:24;;;;;;;;;;;;;;;;;;5090579;28;19931;-75
2024/02/14 14:42:49;;;;;;;;;;;;;;;;;;5083912;28;19928;-75
2024/02/14 14:45:15;;;;;;;;;;;;;;;;;;5087754;28;19969;-80
2024/02/14 14:47:40;;;;;;;;;;;;;;;;;;5091267;28;19955;-80
2024/02/14 14:50:07;;;;;;;;;;;;;;;;;;5090256;28;20403;-80
2024/02/14 14:52:32;;;;;;;;;;;;;;;;;;5091123;28;19920;-81
2024/02/14 14:54:57;;;;;;;;;;;;;;;;;;5080947;28;19937;-80
2024/02/14 14:57:23;;;;;;;;;;;;;;;;;;5085598;28;19951;-80
2024/02/14 14:59:48;;;;;;;;;;;;;;;;;;5085047;28;19917;-79
2024/02/14 15:02:13;;;;;;;;;;;;;;;;;;5090868;28;19927;-80
2024/02/14 15:04:40;;;;;;;;;;;;;;;;;;5086989;28;19924;-80
2024/02/14 15:07:05;;;;;;;;;;;;;;;;;;5086081;28;19919;-80
2024/02/14 15:09:30;;;;;;;;;;;;;;;;;;5073515;28;19912;-79
2024/02/14 15:11:56;;;;;;;;;;;;;;;;;;5089649;28;20013;-80
2024/02/14 15:14:22;;;;;;;;;;;;;;;;;;5088453;28;20338;-80
2024/02/14 15:16:47;;;;;;;;;;;;;;;;;;5087033;28;19912;-80
2024/02/14 15:19:12;;;;;;;;;;;;;;;;;;5081273;28;20603;-79
2024/02/14 15:21:37;;;;;;;;;;;;;;;;;;5085932;28;19916;-78
2024/02/14 15:24:03;;;;;;;;;;;;;;;;;;5084540;28;19916;-78
2024/02/14 15:26:29;;;;;;;;;;;;;;;;;;5092192;28;19912;-78
2024/02/14 15:34:22;;;;;;;;;;;;;;;;;;5084581;28;20434;-76
2024/02/14 15:36:47;;;;;;;;;;;;;;;;;;5086339;28;19912;-77
2024/02/14 15:39:12;;;;;;;;;;;;;;;;;;5089873;28;19912;-78
2024/02/14 15:41:37;;;;;;;;;;;;;;;;;;5088250;28;19928;-77
2024/02/14 15:44:04;;;;;;;;;;;;;;;;;;5089520;28;20439;-76
2024/02/14 15:46:30;;;;;;;;;;;;;;;;;;5091781;28;20421;-77
2024/02/14 15:48:55;;;;;;;;;;;;;;;;;;5090810;28;19912;-78
2024/02/14 15:51:23;;;;;;;;;;;;;;;;;;5090784;28;19912;-77
2024/02/14 15:53:48;;;;;;;;;;;;;;;;;;5088823;28;20380;-76
2024/02/14 15:56:14;;;;;;;;;;;;;;;;;;5090681;28;19912;-75
2024/02/14 15:58:39;;;;;;;;;;;;;;;;;;5080518;28;19955;-75
2024/02/14 16:01:06;;;;;;;;;;;;;;;;;;5081144;28;19912;-75
2024/02/14 16:03:32;;;;;;;;;;;;;;;;;;5081475;28;20061;-74
2024/02/14 16:05:57;;;;;;;;;;;;;;;;;;5084398;28;19998;-74
2024/02/14 16:08:22;;;;;;;;;;;;;;;;;;5080894;28;19912;-74
2024/02/14 16:10:48;;;;;;;;;;;;;;;;;;5086878;28;19970;-74
2024/02/14 16:13:13;;;;;;;;;;;;;;;;;;5082972;28;19919;-74
2024/02/14 16:15:38;;;;;;;;;;;;;;;;;;5089035;28;19912;-75
2024/02/14 16:18:03;;;;;;;;;;;;;;;;;;5086052;28;20284;-74
2024/02/14 16:20:29;;;;;;;;;;;;;;;;;;5089766;28;20664;-74
2024/02/14 16:22:54;;;;;;;;;;;;;;;;;;5087403;28;20284;-74
2024/02/14 16:25:19;;;;;;;;;;;;;;;;;;5085907;28;19919;-75
2024/02/14 16:27:46;;;;;;;;;;;;;;;;;;5087970;28;19957;-74
2024/02/14 16:30:11;;;;;;;;;;;;;;;;;;5082281;28;20277;-74
2024/02/14 16:32:36;;;;;;;;;;;;;;;;;;5072460;28;19970;-74
2024/02/14 16:35:01;;;;;;;;;;;;;;;;;;5074661;28;19913;-75
2024/02/14 16:37:27;;;;;;;;;;;;;;;;;;5080225;28;19921;-74